CheckWX is a tool to help pilots better visualize weather data.  It is not intended as a substitute for an official pre-flight weather briefing.

19:21:48 UTC

KBTR METAR
Baton Rouge Metropolitan, Ryan Field Airport
Baton Rouge, Louisiana, USA
Current

29 mins ago

KBTR 081853Z 24004KT 9SM CLR 18/09 A3007 RMK AO2 SLP183 T01830094
Observed
Dec-8 @ 18:53 UTC
Wind
  • 240° at 4 KTS
Visibility
9 SM
Flight Rules
VFR
Cloud Levels
  • Clear skies
Temperature
18°C / 64°F
Dewpoint
C / 48°F
Humidity
56%
Altimeter
30.07" Hg
Pressure
1018.32 hPa
Previous

1 hour ago

KBTR 081753Z 24005KT 9SM CLR 18/10 A3011 RMK AO2 SLP196 T01780100 10178 20111 58018
Observed
Dec-8 @ 17:53 UTC
Wind
  • 240° at 5 KTS
Visibility
9 SM
Flight Rules
VFR
Cloud Levels
  • Clear skies
Temperature
18°C / 64°F
Dewpoint
10°C / 50°F
Humidity
60%
Altimeter
30.11" Hg
Pressure
1019.62 hPa
Previous

2 hours ago

KBTR 081653Z VRB04KT 8SM FEW020 17/11 A3015 RMK AO2 SLP208 T01720106
Observed
Dec-8 @ 16:53 UTC
Wind
  • Variable at 4 KTS
Visibility
8 SM
Flight Rules
VFR
Cloud Levels
  • Few at 2,000' AGL
Temperature
17°C / 63°F
Dewpoint
11°C / 52°F
Humidity
68%
Altimeter
30.15" Hg
Pressure
1021.02 hPa